Leon, OK

9:15 PM CDT on June 01, 2015 (GMT -0500)
Gainesville Municipal | | Change Station
CLOSE
Current Station
Airport
Location: Gainesville,
Elevation: 840 ft
Nearby Weather Stations
Active Advisory: Flood Warning

Elev 840 ft 33.65 °N, 97.20 °W | Updated 20 minutes ago

Clear
Clear
73 °F
Feels Like 73 °F
N
5
Wind Variable Wind from East

Today
High -- | Low -- °F
--% Chance of Precip.
Yesterday
High -- | Low -- °F
Precip. -- in
6:19 AM 8:35 PM
Full, 100% visible
Pressure 30.04 in
Visibility 10.0 miles
Clouds Clear
Dew Point 62 °F
Humidity 69%
Rainfall 0.00 in
Snow Depth Not available.
UV 0 out of 12
Pollen 6.20 out of 12
Air Quality Not available.
Flu Activity Sporadic
METAR KGLE 020155Z AUTO 10004KT 10SM CLR 23/17 A3004 RMK AO2 T02280169

More Conditions Fewer Conditions

Pressure 30.04 in
Visibility 10.0 miles
Clouds Clear
Dew Point 62 °F
Humidity 69%
Rainfall 0.00 in
Snow Depth Not available.
UV 0 out of 12
Pollen 6.20 out of 12
Air Quality Not available.
Flu Activity Sporadic
METAR KGLE 020155Z AUTO 10004KT 10SM CLR 23/17 A3004 RMK AO2 T02280169

More Conditions Fewer Conditions

10-Day Weather Forecast

Almanac

Astronomy

Jun. 01, 2015 Rise Set
Actual Time
Civil Twilight
Nautical Twilight
Astronomical Twilight
Moon
Length of Visible Light
Length of Day
Tomorrow will be .
, % of the Moon is Illuminated

Today's Extremes

State Highs State Lows

Community

WunderPhotos

Upload Photos

1,825,857 photos uploaded!

WunderBlogs® & News

Nearby

Air Quality

  Air Quality AQ Index Pollutant
Not available.

Snow Depth

Station Depth Elevation

Earthquake Activity

City Distance Mag. Time & Date
Minimum magnitude displayed is 2.5.

Coastal Water Temperatures

Place Temperature

Stations

Nearby Weather Stations

Station Location Temp. Windchill Dew Point Humidity Wind Precip. Elev Updated Type
                   
Flood Warning
Statement as of 9:09 PM CDT on June 01, 2015

The Flood Warning continues for
the Red River near Gainesville

* until further notice... or until the warning is cancelled.

* At 8:30 PM Monday the stage was 33.2 feet.

* Moderate flooding is occurring.

* Flood stage is 25.0 feet.

* Forecast... the Red River has crested and will continue to fall to a
stage of 30.6 feet mid Wednesday morning.



Lat... Lon 3379 9748 3400 9748 3395 9719 3398 9704
      3380 9698 3367 9710